Time;durP1;ratioP1;P1;durP2;ratioP2;P2;SDS_P1;SDS_P2;PMS_P1;PMS_P2;Temp;Humidity;BMP_temperature;BMP_pressure;BME280_temperature;BME280_humidity;BME280_pressure;Samples;Min_cycle;Max_cycle;Signal;HPM_P1;HPM_P2
2024/04/21 00:02:02;;;;;;;;;;;7.30;99.90;;;7.69;67.23;100886.09;5527608;26;19928;-82
2024/04/21 00:04:31;;;;;;;;;;;7.30;99.90;;;7.67;67.14;100884.63;5525857;26;19935;-82
2024/04/21 00:07:01;;;;;;;;;;;7.30;99.90;;;7.68;66.73;100879.13;5529960;26;19959;-81
2024/04/21 00:09:27;;;;;;;;;;;7.30;99.90;;;7.67;66.31;100882.81;5529016;25;19934;-81
2024/04/21 00:11:56;;;;;;;;;;;7.30;99.90;;;7.68;67.04;100883.63;5500489;26;19931;-81
2024/04/21 00:14:22;;;;;;;;;;;7.30;99.90;;;7.71;67.45;100888.56;5529094;25;19927;-81
2024/04/21 00:16:51;;;;;;;;;;;7.30;99.90;;;7.71;67.67;100878.78;5539021;25;19934;-81
2024/04/21 00:19:17;;;;;;;;;;;7.30;99.90;;;7.67;66.91;100884.63;5529819;26;19934;-81
2024/04/21 00:21:49;;;;;;;;;;;7.30;99.90;;;7.66;67.51;100880.31;5528159;26;19994;-82
2024/04/21 00:24:15;;;;;;;;;;;7.30;99.90;;;7.67;66.96;100877.50;5514555;26;19931;-82
2024/04/21 00:26:44;;;;;;;;;;;7.30;99.90;;;7.56;66.17;100877.91;5523930;25;19934;-81
2024/04/21 00:29:11;;;;;;;;;;;7.20;99.90;;;7.58;67.06;100878.59;5527696;26;19940;-81
2024/04/21 00:31:40;;;;;;;;;;;7.20;99.90;;;7.52;66.38;100876.66;5526403;26;20396;-81
2024/04/21 00:34:06;;;;;;;;;;;7.20;99.90;;;7.51;66.23;100879.47;5529269;25;19927;-82
2024/04/21 00:36:35;;;;;;;;;;;7.10;99.90;;;7.49;66.18;100875.19;5528969;25;19928;-81
2024/04/21 00:39:04;;;;;;;;;;;7.10;99.90;;;7.50;65.78;100868.03;5520501;26;20300;-81
2024/04/21 00:41:33;;;;;;;;;;;7.10;99.90;;;7.48;65.38;100862.91;5524157;26;20382;-82
2024/04/21 00:43:59;;;;;;;;;;;7.10;99.90;;;7.52;66.39;100874.00;5527263;26;19939;-81
2024/04/21 00:46:28;;;;;;;;;;;7.10;99.90;;;7.54;66.50;100871.16;5527981;26;19995;-81
2024/04/21 00:48:55;;;;;;;;;;;7.20;99.90;;;7.54;66.34;100866.66;5528853;25;20273;-81
2024/04/21 00:51:25;;;;;;;;;;;7.20;99.90;;;7.52;66.61;100858.09;5528432;25;19932;-81
2024/04/21 00:53:51;;;;;;;;;;;7.10;99.90;;;7.54;66.99;100858.72;5521207;25;19959;-82
2024/04/21 00:56:25;;;;;;;;;;;7.10;99.90;;;7.52;66.98;100855.44;5528868;25;19935;-81
2024/04/21 00:58:54;;;;;;;;;;;7.10;99.90;;;7.48;66.20;100860.25;5529028;25;19928;-82
2024/04/21 01:01:23;;;;;;;;;;;7.10;99.90;;;7.46;66.09;100864.91;5528061;25;19927;-82
2024/04/21 01:03:51;;;;;;;;;;;7.10;99.90;;;7.49;66.44;100866.41;5528846;26;19993;-82
2024/04/21 01:06:19;;;;;;;;;;;7.10;99.90;;;7.46;66.48;100854.28;5509331;26;19931;-81
2024/04/21 01:08:46;;;;;;;;;;;7.00;99.90;;;7.45;66.19;100863.28;5529234;25;19927;-81
2024/04/21 01:11:18;;;;;;;;;;;7.00;99.90;;;7.40;65.71;100855.03;5528793;25;19931;-82
2024/04/21 01:13:47;;;;;;;;;;;7.00;99.90;;;7.40;66.20;100863.00;5528499;26;19947;-82
2024/04/21 01:16:16;;;;;;;;;;;7.00;99.90;;;7.41;66.49;100850.53;5526811;26;20271;-81
2024/04/21 01:18:44;;;;;;;;;;;7.00;99.90;;;7.39;66.45;100857.88;5527948;26;19927;-82
2024/04/21 01:21:13;;;;;;;;;;;6.90;99.90;;;7.36;66.13;100848.44;5528785;26;19947;-82
2024/04/21 01:23:42;;;;;;;;;;;6.90;99.90;;;7.35;65.44;100852.09;5522643;25;19952;-83
2024/04/21 01:26:10;;;;;;;;;;;6.90;99.90;;;7.27;65.68;100849.53;5519256;25;19977;-81
2024/04/21 01:28:36;;;;;;;;;;;6.80;99.90;;;7.32;65.56;100841.00;5528553;26;19928;-81
2024/04/21 01:31:05;;;;;;;;;;;6.80;99.90;;;7.31;66.07;100847.31;5528208;25;19960;-81
2024/04/21 01:33:32;;;;;;;;;;;6.80;99.90;;;7.32;65.76;100841.88;5506418;26;19928;-82
2024/04/21 01:36:01;;;;;;;;;;;6.80;99.90;;;7.35;65.92;100845.97;5528562;25;19935;-81
2024/04/21 01:38:27;;;;;;;;;;;6.90;99.90;;;7.33;65.95;100843.50;5528755;25;19934;-81
2024/04/21 01:40:58;;;;;;;;;;;6.90;99.90;;;7.29;65.62;100841.38;5517352;25;20405;-81
2024/04/21 01:43:24;;;;;;;;;;;6.80;99.90;;;7.27;65.92;100838.06;5514581;26;19927;-81
2024/04/21 01:45:54;;;;;;;;;;;6.80;99.90;;;7.22;65.30;100836.81;5523301;26;20398;-81
2024/04/21 01:48:20;;;;;;;;;;;6.80;99.90;;;7.22;66.10;100836.81;5528088;25;19934;-81
2024/04/21 01:50:49;;;;;;;;;;;6.80;99.90;;;7.16;64.93;100834.03;5528259;25;19935;-81
2024/04/21 01:53:17;;;;;;;;;;;6.70;99.90;;;7.14;65.25;100833.41;5528045;26;19927;-81
2024/04/21 01:55:45;;;;;;;;;;;6.70;99.90;;;7.15;65.39;100824.44;5526744;25;19939;-82
2024/04/21 01:58:14;;;;;;;;;;;6.70;99.90;;;7.16;65.69;100824.25;5528027;25;20336;-82
2024/04/21 02:00:43;;;;;;;;;;;6.60;99.90;;;7.14;65.83;100822.78;5527621;26;19928;-81
2024/04/21 02:03:09;;;;;;;;;;;6.70;99.90;;;7.12;64.97;100814.19;5512089;25;19935;-81
2024/04/21 02:05:38;;;;;;;;;;;6.60;99.90;;;7.10;65.39;100817.00;5521262;26;20386;-82
2024/04/21 02:08:05;;;;;;;;;;;6.60;99.90;;;7.08;65.61;100818.22;5527863;26;20270;-81
2024/04/21 02:10:34;;;;;;;;;;;6.60;99.90;;;7.08;65.10;100808.44;5527925;26;19952;-81
2024/04/21 02:13:00;;;;;;;;;;;6.60;99.90;;;7.07;65.05;100813.88;5527787;25;19943;-82
2024/04/21 02:15:32;;;;;;;;;;;6.50;99.90;;;7.06;65.63;100812.25;5526932;25;19934;-81
2024/04/21 02:17:58;;;;;;;;;;;6.50;99.90;;;7.00;65.23;100816.44;5498179;26;19937;-81
2024/04/21 02:20:26;;;;;;;;;;;6.50;99.90;;;6.94;65.54;100817.16;5521269;25;19943;-81
2024/04/21 02:22:53;;;;;;;;;;;6.40;99.90;;;6.93;66.02;100819.00;5514458;25;20079;-81
2024/04/21 02:25:21;;;;;;;;;;;6.40;99.90;;;6.93;66.24;100826.97;5518749;26;19933;-81
2024/04/21 02:27:47;;;;;;;;;;;6.40;99.90;;;6.93;66.12;100826.97;5527631;26;19934;-81
2024/04/21 02:30:17;;;;;;;;;;;6.40;99.90;;;6.91;66.01;100809.56;5529369;25;19939;-82
2024/04/21 02:32:46;;;;;;;;;;;6.40;99.90;;;6.86;65.95;100815.41;5529485;26;19933;-81
2024/04/21 02:35:15;;;;;;;;;;;6.40;99.90;;;6.90;66.03;100821.19;5530764;25;19952;-82
2024/04/21 02:37:41;;;;;;;;;;;6.40;99.90;;;6.88;65.29;100813.41;5531123;26;19927;-82
2024/04/21 02:40:10;;;;;;;;;;;6.40;99.90;;;6.83;65.47;100807.81;5510666;25;19927;-81
2024/04/21 02:42:36;;;;;;;;;;;6.30;99.90;;;6.85;65.65;100813.75;5520039;26;20379;-81
2024/04/21 02:45:06;;;;;;;;;;;6.40;99.90;;;6.83;64.97;100806.97;5530854;25;19934;-81
2024/04/21 02:47:32;;;;;;;;;;;6.30;99.90;;;6.81;64.86;100809.00;5531379;26;19931;-81
2024/04/21 02:50:03;;;;;;;;;;;6.30;99.90;;;6.77;64.66;100807.69;5520895;26;19933;-81
2024/04/21 02:52:29;;;;;;;;;;;6.20;99.90;;;6.71;64.91;100806.56;5529786;25;19927;-81
2024/04/21 02:54:58;;;;;;;;;;;6.20;99.90;;;6.71;64.74;100802.09;5530576;25;19934;-81
2024/04/21 02:57:24;;;;;;;;;;;6.20;99.90;;;6.70;65.11;100807.59;5528830;26;19976;-81
2024/04/21 02:59:53;;;;;;;;;;;6.20;99.90;;;6.66;65.08;100799.16;5530524;25;19936;-81
2024/04/21 03:02:19;;;;;;;;;;;6.10;99.90;;;6.67;64.92;100806.09;5528638;26;19928;-81
2024/04/21 03:04:48;;;;;;;;;;;6.10;99.90;;;6.67;65.26;100802.63;5530586;25;19995;-82
2024/04/21 03:07:17;;;;;;;;;;;6.10;99.90;;;6.65;64.77;100800.16;5530448;26;19928;-82
2024/04/21 03:09:46;;;;;;;;;;;6.00;99.90;;;6.64;65.08;100801.19;5525407;26;19996;-82
2024/04/21 03:12:12;;;;;;;;;;;6.10;99.90;;;6.62;65.16;100792.56;5530529;26;19927;-83
2024/04/21 03:14:41;;;;;;;;;;;6.10;99.90;;;6.62;65.06;100789.09;5530332;26;19935;-81
2024/04/21 03:17:07;;;;;;;;;;;6.10;99.90;;;6.59;65.62;100792.13;5530596;26;19928;-81
2024/04/21 03:19:37;;;;;;;;;;;6.00;99.90;;;6.60;65.70;100791.94;5530145;26;19935;-81
2024/04/21 03:22:03;;;;;;;;;;;6.10;99.90;;;6.62;65.54;100797.84;5529561;25;19927;-81
2024/04/21 03:24:35;;;;;;;;;;;6.00;99.90;;;6.59;65.52;100784.97;5508913;26;20352;-81
2024/04/21 03:27:01;;;;;;;;;;;6.10;99.90;;;6.59;66.02;100794.75;5511879;25;19939;-81
2024/04/21 03:29:30;;;;;;;;;;;6.10;99.90;;;6.57;66.36;100786.16;5524259;26;19942;-81
2024/04/21 03:31:56;;;;;;;;;;;6.00;99.90;;;6.59;66.59;100792.13;5500714;26;19927;-81
2024/04/21 03:34:25;;;;;;;;;;;6.10;99.90;;;6.62;66.34;100789.91;5529949;25;19929;-81
2024/04/21 03:36:53;;;;;;;;;;;6.10;99.90;;;6.61;66.66;100782.97;5529639;26;19927;-81
2024/04/21 03:39:22;;;;;;;;;;;6.10;99.90;;;6.62;66.74;100781.97;5530028;25;19939;-81
2024/04/21 03:41:54;;;;;;;;;;;6.10;99.90;;;6.62;67.17;100781.97;5514940;25;19935;-81
2024/04/21 03:44:22;;;;;;;;;;;6.20;99.90;;;6.62;67.08;100784.59;5529457;25;19927;-81
2024/04/21 03:46:50;;;;;;;;;;;6.20;99.90;;;6.63;67.34;100782.78;5529864;26;19935;-81
2024/04/21 03:49:16;;;;;;;;;;;6.20;99.90;;;6.64;67.70;100782.63;5529209;26;19928;-82
2024/04/21 03:51:45;;;;;;;;;;;6.50;99.90;;;6.66;67.44;100785.91;5526705;26;19927;-82
2024/04/21 03:54:12;;;;;;;;;;;6.20;99.90;;;6.68;66.89;100791.03;5521369;25;19927;-81
2024/04/21 03:56:40;;;;;;;;;;;6.20;99.90;;;6.66;67.43;100785.91;5528849;26;20299;-81
2024/04/21 03:59:09;;;;;;;;;;;6.20;99.90;;;6.65;67.71;100778.16;5521880;26;19927;-81
2024/04/21 04:01:39;;;;;;;;;;;6.20;99.90;;;6.65;67.70;100786.91;5525220;26;19935;-81
2024/04/21 04:04:05;;;;;;;;;;;6.20;99.90;;;6.67;67.18;100784.06;5529410;26;19935;-81
2024/04/21 04:06:34;;;;;;;;;;;6.30;99.90;;;6.67;67.72;100792.03;5529971;26;19928;-81
2024/04/21 04:09:00;;;;;;;;;;;6.20;99.90;;;6.66;67.90;100796.50;5529946;25;19935;-81
2024/04/21 04:11:29;;;;;;;;;;;6.20;99.90;;;6.62;67.71;100797.03;5529892;25;19934;-81
2024/04/21 04:13:55;;;;;;;;;;;6.20;99.90;;;6.65;67.80;100797.50;5501348;26;20260;-81
2024/04/21 04:16:26;;;;;;;;;;;6.20;99.90;;;6.69;67.81;100801.47;5529954;26;20364;-81
2024/04/21 04:18:52;;;;;;;;;;;6.30;99.90;;;6.70;67.47;100800.47;5529565;26;19928;-82
2024/04/21 04:21:21;;;;;;;;;;;6.30;99.90;;;6.71;68.00;100795.97;5528676;25;19995;-82
2024/04/21 04:23:47;;;;;;;;;;;6.30;99.90;;;6.71;68.16;100798.63;5507092;25;20253;-81
2024/04/21 04:26:16;;;;;;;;;;;6.30;99.90;;;6.71;68.31;100791.50;5529336;26;19996;-82
2024/04/21 04:28:42;;;;;;;;;;;6.30;99.90;;;6.71;68.68;100794.16;5529374;26;19934;-81
2024/04/21 04:31:11;;;;;;;;;;;6.30;99.90;;;6.72;68.27;100792.31;5502815;25;19939;-81
2024/04/21 04:33:40;;;;;;;;;;;6.30;99.90;;;6.71;68.32;100790.69;5527148;25;19951;-80
2024/04/21 04:36:09;;;;;;;;;;;6.30;99.90;;;6.67;68.28;100786.72;5556645;25;20358;-80
2024/04/21 04:38:35;;;;;;;;;;;6.30;99.90;;;6.67;68.03;100792.03;5529150;25;19931;-81
2024/04/21 04:41:05;;;;;;;;;;;6.30;99.90;;;6.64;68.04;100781.81;5517592;26;19935;-81
2024/04/21 04:43:33;;;;;;;;;;;6.40;99.90;;;6.62;68.36;100786.44;5530970;26;19995;-81
2024/04/21 04:46:02;;;;;;;;;;;6.20;99.90;;;6.63;67.95;100788.91;5530576;26;19927;-82
2024/04/21 04:48:28;;;;;;;;;;;6.20;99.90;;;6.63;67.79;100788.91;5529606;25;19935;-81
2024/04/21 04:51:00;;;;;;;;;;;6.20;99.90;;;6.65;67.96;100784.25;5530207;25;19927;-81
2024/04/21 04:53:26;;;;;;;;;;;6.30;99.90;;;6.65;68.17;100786.91;5528239;25;20390;-81
2024/04/21 04:55:55;;;;;;;;;;;6.30;99.90;;;6.64;68.53;100781.81;5528982;26;19928;-81
2024/04/21 04:58:21;;;;;;;;;;;6.30;99.90;;;6.67;68.62;100792.84;5529641;26;19954;-82
2024/04/21 05:00:50;;;;;;;;;;;6.30;99.90;;;6.69;68.66;100793.50;5529198;25;19927;-81
2024/04/21 05:03:16;;;;;;;;;;;6.30;99.90;;;6.72;68.53;100787.84;5527152;26;19935;-81
2024/04/21 05:05:45;;;;;;;;;;;6.40;99.90;;;6.71;68.39;100794.16;5528907;25;20400;-82
2024/04/21 05:08:14;;;;;;;;;;;6.30;99.90;;;6.73;68.91;100804.56;5529003;25;19935;-86
2024/04/21 05:10:42;;;;;;;;;;;6.30;99.90;;;6.73;68.82;100807.22;5529915;26;19928;-82
2024/04/21 05:13:09;;;;;;;;;;;6.30;99.90;;;6.75;68.49;100813.19;5529108;25;20289;-83
2024/04/21 05:15:37;;;;;;;;;;;6.40;99.90;;;6.77;68.47;100815.63;5528714;25;20379;-82
2024/04/21 05:18:04;;;;;;;;;;;6.40;99.90;;;6.77;68.49;100816.47;5510672;25;19927;-82
2024/04/21 05:20:33;;;;;;;;;;;6.40;99.90;;;6.80;68.67;100825.91;5507081;25;19928;-83
2024/04/21 05:22:59;;;;;;;;;;;6.40;99.90;;;6.78;68.12;100825.22;5530276;25;19934;-83
2024/04/21 05:25:30;;;;;;;;;;;6.40;99.90;;;6.74;68.80;100827.44;5505226;26;19935;-82
2024/04/21 05:27:57;;;;;;;;;;;6.40;99.90;;;6.77;68.89;100828.91;5501397;26;20378;-83
2024/04/21 05:30:26;;;;;;;;;;;6.40;99.90;;;6.78;69.13;100833.19;5523486;26;19934;-81
2024/04/21 05:32:52;;;;;;;;;;;6.40;99.90;;;6.79;69.22;100845.47;5522226;25;19952;-80
2024/04/21 05:35:20;;;;;;;;;;;6.50;99.90;;;6.81;69.02;100838.16;5506192;26;20386;-83
2024/04/21 05:37:47;;;;;;;;;;;6.50;99.90;;;6.85;68.96;100836.78;5528158;26;19927;-82
2024/04/21 05:40:15;;;;;;;;;;;6.60;99.90;;;6.91;69.38;100838.72;5530100;25;20378;-82
2024/04/21 05:42:44;;;;;;;;;;;6.60;99.90;;;6.93;68.93;100842.88;5525614;26;19955;-82
2024/04/21 05:45:13;;;;;;;;;;;6.60;99.90;;;6.87;68.69;100842.72;5519149;26;19943;-82
2024/04/21 05:47:40;;;;;;;;;;;6.60;99.90;;;6.88;68.88;100847.88;5508846;26;20379;-82
2024/04/21 05:50:09;;;;;;;;;;;6.60;99.90;;;6.93;69.01;100853.47;5529730;26;19931;-82
2024/04/21 05:52:35;;;;;;;;;;;6.60;99.90;;;6.86;68.17;100855.16;5526665;25;19934;-83
2024/04/21 05:55:05;;;;;;;;;;;6.60;99.90;;;6.79;68.56;100853.41;5505954;26;20386;-82
2024/04/21 05:57:31;;;;;;;;;;;6.50;99.90;;;6.81;68.90;100860.19;5522575;26;20379;-82
2024/04/21 06:00:02;;;;;;;;;;;6.50;99.90;;;6.79;68.35;100853.41;5529238;25;19976;-82
2024/04/21 06:02:30;;;;;;;;;;;6.50;99.90;;;6.83;68.71;100863.50;5525761;26;19928;-82
2024/04/21 06:04:59;;;;;;;;;;;6.60;99.90;;;6.90;68.56;100874.19;5526877;26;19974;-82
2024/04/21 06:07:25;;;;;;;;;;;6.60;99.90;;;6.90;68.48;100872.38;5525411;26;19927;-83
2024/04/21 06:09:54;;;;;;;;;;;6.60;99.90;;;6.87;68.66;100870.06;5527760;25;19935;-82
2024/04/21 06:12:22;;;;;;;;;;;6.60;99.90;;;6.96;68.39;100874.31;5529396;26;20279;-81
2024/04/21 06:14:51;;;;;;;;;;;6.70;99.90;;;7.00;68.31;100873.97;5523663;25;19932;-78
2024/04/21 06:17:19;;;;;;;;;;;6.70;99.90;;;7.12;68.94;100880.47;5520271;26;20270;-79
2024/04/21 06:19:48;;;;;;;;;;;6.90;99.90;;;7.15;68.60;100894.22;5523999;25;19939;-79
2024/04/21 06:22:14;;;;;;;;;;;6.90;99.90;;;7.13;68.39;100890.09;5527617;25;19934;-81
2024/04/21 06:24:43;;;;;;;;;;;6.90;99.90;;;7.04;68.02;100896.47;5512949;26;19927;-80
2024/04/21 06:27:10;;;;;;;;;;;6.80;99.90;;;6.99;67.99;100896.19;5520599;26;19928;-83
2024/04/21 06:29:39;;;;;;;;;;;6.70;99.90;;;7.01;69.06;100907.44;5527696;26;19931;-82
2024/04/21 06:32:05;;;;;;;;;;;6.70;99.90;;;6.96;67.86;100903.47;5533662;26;19927;-82
2024/04/21 06:34:37;;;;;;;;;;;6.70;99.90;;;6.87;68.08;100912.47;5527666;25;19940;-81
2024/04/21 06:37:03;;;;;;;;;;;6.60;99.90;;;6.88;67.41;100908.00;5532888;26;19934;-83
2024/04/21 06:39:32;;;;;;;;;;;6.60;99.90;;;6.67;65.51;100906.81;5532856;26;19972;-82
2024/04/21 06:41:58;;;;;;;;;;;6.50;99.90;;;6.60;65.45;100916.47;5530497;25;19933;-82
2024/04/21 06:44:27;;;;;;;;;;;6.40;99.90;;;6.56;65.55;100912.53;5530534;26;19931;-82
2024/04/21 06:46:53;;;;;;;;;;;6.30;99.90;;;6.64;65.73;100916.97;5532983;26;19939;-82
2024/04/21 06:49:22;;;;;;;;;;;6.40;99.90;;;6.72;66.15;100914.25;5530241;26;19935;-82
2024/04/21 06:51:50;;;;;;;;;;;6.50;99.90;;;6.73;66.10;100915.88;5522486;26;20393;-82
2024/04/21 06:54:19;;;;;;;;;;;6.50;99.90;;;6.68;65.93;100924.34;5502229;25;19936;-82
2024/04/21 06:56:45;;;;;;;;;;;6.50;99.90;;;6.66;65.70;100917.59;5516189;26;19932;-81
2024/04/21 06:59:14;;;;;;;;;;;6.40;99.90;;;6.72;65.51;100914.25;5532858;25;19936;-82
2024/04/21 07:01:40;;;;;;;;;;;6.50;99.90;;;6.67;64.46;100917.41;5511413;26;19935;-82
2024/04/21 07:04:09;;;;;;;;;;;6.40;99.90;;;6.62;65.34;100927.72;5532964;25;19955;-82
2024/04/21 07:06:35;;;;;;;;;;;6.40;99.90;;;6.72;66.34;100932.78;5524888;26;19935;-82
2024/04/21 07:09:07;;;;;;;;;;;6.50;99.90;;;6.71;65.59;100931.97;5520563;26;19935;-82
2024/04/21 07:11:33;;;;;;;;;;;6.50;99.90;;;6.58;65.06;100939.66;5505425;26;19928;-82
2024/04/21 07:14:02;;;;;;;;;;;6.40;99.90;;;6.61;65.85;100938.50;5521556;26;19996;-82
2024/04/21 07:16:28;;;;;;;;;;;6.40;99.90;;;6.50;65.30;100952.97;5530389;25;19928;-82
2024/04/21 07:18:57;;;;;;;;;;;6.30;99.90;;;6.42;66.19;100953.81;5533593;26;20259;-82
2024/04/21 07:21:23;;;;;;;;;;;6.20;99.90;;;6.49;65.81;100961.91;5533727;25;19928;-82
2024/04/21 07:23:55;;;;;;;;;;;6.30;99.90;;;6.48;66.39;100962.88;5515658;26;19927;-82
2024/04/21 07:26:23;;;;;;;;;;;6.30;99.90;;;6.55;66.56;100968.34;5530564;25;19986;-82
2024/04/21 07:28:52;;;;;;;;;;;6.30;99.90;;;6.63;66.63;100961.16;5530200;26;19927;-82
2024/04/21 07:31:19;;;;;;;;;;;6.40;99.90;;;6.74;67.21;100959.16;5525345;25;19939;-82
2024/04/21 07:33:50;;;;;;;;;;;6.60;99.90;;;6.51;65.37;100964.38;5531882;26;19996;-82
2024/04/21 07:36:18;;;;;;;;;;;6.40;99.90;;;6.64;66.47;100962.84;5532593;25;19928;-82
2024/04/21 07:38:53;;;;;;;;;;;6.50;99.90;;;6.76;66.04;100967.75;5532573;26;20268;-82
2024/04/21 07:41:23;;;;;;;;;;;6.60;99.90;;;6.85;65.88;100972.00;5530079;26;19934;-82
2024/04/21 07:43:52;;;;;;;;;;;6.70;99.90;;;6.85;65.71;100974.66;5530600;25;19928;-82
2024/04/21 07:46:19;;;;;;;;;;;6.70;99.90;;;6.90;66.30;100982.91;5531006;26;19935;-82
2024/04/21 07:48:51;;;;;;;;;;;6.80;99.90;;;6.85;65.81;100977.31;5531134;25;19960;-82
2024/04/21 07:51:18;;;;;;;;;;;6.80;99.90;;;7.00;66.24;100985.34;5530811;26;19927;-82
2024/04/21 07:53:50;;;;;;;;;;;6.90;99.90;;;7.06;66.19;100992.59;5530934;25;19943;-82
2024/04/21 07:56:16;;;;;;;;;;;7.00;99.90;;;7.10;66.09;101000.03;5531353;25;19927;-82
2024/04/21 07:58:48;;;;;;;;;;;7.00;99.90;;;7.00;65.85;100996.75;5527568;25;19951;-82
2024/04/21 08:01:15;;;;;;;;;;;6.90;99.90;;;6.89;65.89;101008.59;5520490;26;19952;-82
2024/04/21 08:03:45;;;;;;;;;;;6.80;99.90;;;6.87;66.32;101010.56;5524405;26;19928;-83
2024/04/21 08:06:11;;;;;;;;;;;6.70;99.90;;;6.82;65.26;101020.88;5515070;26;19927;-83
2024/04/21 08:08:43;;;;;;;;;;;6.70;99.90;;;6.89;65.89;101013.06;5531180;26;19938;-83
2024/04/21 08:11:10;;;;;;;;;;;6.80;99.90;;;6.97;65.86;101015.66;5530135;25;19996;-83
2024/04/21 08:13:39;;;;;;;;;;;6.80;99.90;;;6.98;64.65;101009.38;5530082;25;20005;-82
2024/04/21 08:16:09;;;;;;;;;;;6.90;99.90;;;6.71;64.93;101018.63;5529372;26;19928;-82
2024/04/21 08:18:39;;;;;;;;;;;6.70;99.90;;;6.72;65.55;101015.78;5529291;25;19927;-82
2024/04/21 08:21:05;;;;;;;;;;;6.60;99.90;;;6.81;65.08;101021.88;5531722;26;19956;-79
2024/04/21 08:23:34;;;;;;;;;;;6.70;99.90;;;6.76;64.67;101024.22;5531340;26;19927;-80
2024/04/21 08:26:03;;;;;;;;;;;6.70;99.90;;;6.81;64.96;101037.78;5530141;26;20357;-81
2024/04/21 08:28:31;;;;;;;;;;;6.70;99.90;;;6.83;65.42;101045.56;5531360;25;19927;-81
2024/04/21 08:30:58;;;;;;;;;;;6.80;99.90;;;6.75;64.77;101038.50;5531549;26;20024;-81
2024/04/21 08:33:29;;;;;;;;;;;6.70;99.90;;;6.76;64.76;101047.25;5526928;25;19939;-81
2024/04/21 08:35:57;;;;;;;;;;;6.70;99.90;;;6.85;64.91;101056.84;5498520;26;19927;-81
2024/04/21 08:38:26;;;;;;;;;;;6.80;99.90;;;6.82;64.97;101047.38;5530538;26;19934;-81
2024/04/21 08:40:52;;;;;;;;;;;6.80;99.90;;;6.99;65.38;101063.25;5530505;26;20328;-81
2024/04/21 08:43:27;;;;;;;;;;;6.90;99.90;;;6.88;64.58;101062.63;5530120;26;19927;-81
2024/04/21 08:45:54;;;;;;;;;;;6.90;99.90;;;6.96;64.81;101062.56;5499932;26;19928;-81
2024/04/21 08:48:25;;;;;;;;;;;6.90;99.90;;;7.05;64.84;101066.03;5530621;26;19937;-81
2024/04/21 08:50:54;;;;;;;;;;;7.00;99.90;;;7.08;65.06;101067.50;5528842;26;19935;-82
2024/04/21 08:53:23;;;;;;;;;;;7.00;99.90;;;7.05;63.71;101067.84;5528053;26;19927;-80
2024/04/21 08:55:50;;;;;;;;;;;7.00;99.90;;;7.03;64.08;101070.69;5524236;26;19929;-81
2024/04/21 08:58:20;;;;;;;;;;;7.00;99.90;;;7.07;64.76;101071.97;5505604;26;19934;-81
2024/04/21 09:00:46;;;;;;;;;;;7.00;99.90;;;7.12;64.30;101069.63;5530152;25;20386;-81
2024/04/21 09:03:16;;;;;;;;;;;7.10;99.90;;;7.22;64.54;101074.69;5530420;25;20331;-82
2024/04/21 09:05:42;;;;;;;;;;;7.20;99.90;;;7.22;63.13;101066.75;5509562;25;19935;-81
2024/04/21 09:08:13;;;;;;;;;;;7.20;99.90;;;7.22;63.46;101070.25;5514044;25;19927;-82
2024/04/21 09:10:40;;;;;;;;;;;7.20;99.90;;;7.14;63.58;101082.72;5520886;25;20286;-82
2024/04/21 09:13:10;;;;;;;;;;;7.20;99.90;;;7.10;62.53;101082.25;5529116;26;19996;-80
2024/04/21 09:15:37;;;;;;;;;;;7.10;99.90;;;7.23;63.70;101079.84;5529307;26;20025;-82
2024/04/21 09:18:09;;;;;;;;;;;7.20;99.90;;;7.39;63.82;101070.16;5529266;25;20398;-81
2024/04/21 09:20:36;;;;;;;;;;;7.40;99.90;;;7.58;63.94;101074.19;5529764;26;19934;-81
2024/04/21 09:23:07;;;;;;;;;;;7.70;99.90;;;7.51;62.55;101082.00;5529595;26;20282;-81
2024/04/21 09:25:38;;;;;;;;;;;7.60;99.90;;;7.65;62.71;101075.94;5503837;25;19998;-82
2024/04/21 09:28:07;;;;;;;;;;;7.80;99.90;;;7.78;63.25;101087.78;5529021;25;19939;-82
2024/04/21 09:30:33;;;;;;;;;;;7.90;99.90;;;7.78;62.70;101085.97;5526634;26;19927;-82
2024/04/21 09:33:02;;;;;;;;;;;7.90;99.90;;;7.78;61.98;101085.97;5516485;26;19932;-81
2024/04/21 09:35:29;;;;;;;;;;;7.90;99.90;;;7.80;61.17;101091.91;5523769;26;19928;-81
2024/04/21 09:38:01;;;;;;;;;;;7.90;99.90;;;7.73;61.55;101089.16;5522162;26;19928;-81
2024/04/21 09:40:28;;;;;;;;;;;7.80;99.90;;;7.74;60.40;101096.09;5509512;26;19943;-82
2024/04/21 09:42:59;;;;;;;;;;;7.90;99.90;;;7.73;59.72;101091.81;5524782;26;19931;-81
2024/04/21 09:45:28;;;;;;;;;;;7.90;99.90;;;7.68;58.21;101104.78;5529137;25;19927;-82
2024/04/21 09:48:01;;;;;;;;;;;7.80;99.90;;;7.69;58.79;101092.34;5499527;26;19927;-81
2024/04/21 09:50:27;;;;;;;;;;;7.80;99.90;;;7.77;59.43;101108.22;5527845;26;19927;-81
2024/04/21 09:52:57;;;;;;;;;;;7.90;99.90;;;7.82;59.13;101094.41;5529712;26;19934;-81
2024/04/21 09:55:24;;;;;;;;;;;8.00;99.90;;;7.92;59.42;101095.00;5528656;25;20021;-82
2024/04/21 09:58:00;;;;;;;;;;;8.00;99.90;;;7.93;58.67;101096.63;5505628;26;19927;-82
2024/04/21 10:00:29;;;;;;;;;;;8.00;99.90;;;7.97;57.91;101112.03;5510695;26;19927;-81
2024/04/21 10:03:00;;;;;;;;;;;8.10;99.90;;;7.96;57.68;101097.13;5526852;25;19943;-82
2024/04/21 10:05:30;;;;;;;;;;;8.10;99.90;;;8.11;58.31;101101.66;5526356;25;19928;-82
2024/04/21 10:07:59;;;;;;;;;;;8.20;99.90;;;8.17;57.68;101101.75;5497299;26;19928;-82
2024/04/21 10:10:28;;;;;;;;;;;8.30;99.90;;;8.29;57.15;101098.63;5531455;25;19927;-82
2024/04/21 10:13:04;;;;;;;;;;;8.50;99.90;;;8.23;56.82;101101.00;5526125;26;19928;-82
2024/04/21 10:15:34;;;;;;;;;;;8.40;99.90;;;8.24;57.52;101089.38;5530179;25;19934;-82
2024/04/21 10:18:01;;;;;;;;;;;8.40;99.90;;;8.16;56.30;101102.75;5528880;26;19937;-82
2024/04/21 10:20:31;;;;;;;;;;;8.30;99.90;;;8.12;56.17;101097.97;5530710;26;19934;-83
2024/04/21 10:22:59;;;;;;;;;;;8.20;99.90;;;8.21;55.48;101110.19;5531239;25;19928;-83
2024/04/21 10:25:28;;;;;;;;;;;8.30;99.90;;;8.33;56.05;101105.25;5532108;25;20387;-81
2024/04/21 10:28:08;;;;;;;;;;;8.50;99.90;;;8.34;54.76;101106.91;5532498;26;19995;-81
2024/04/21 10:30:38;;;;;;;;;;;8.50;99.90;;;8.33;54.14;101115.88;5533565;25;19935;-81
2024/04/21 10:33:09;;;;;;;;;;;8.50;99.90;;;8.34;54.79;101115.69;5532228;26;20266;-81
2024/04/21 10:35:39;;;;;;;;;;;8.50;99.90;;;8.24;52.87;101117.78;5533201;25;19927;-81
2024/04/21 10:38:07;;;;;;;;;;;8.40;99.90;;;8.37;52.97;101112.72;5531794;26;19995;-80
2024/04/21 10:40:38;;;;;;;;;;;8.50;99.90;;;8.48;52.79;101117.59;5529089;25;19939;-81
2024/04/21 10:43:07;;;;;;;;;;;8.70;99.90;;;8.54;53.43;101113.41;5530310;26;19967;-82
2024/04/21 10:45:38;;;;;;;;;;;8.70;99.90;;;8.54;53.69;101126.69;5530765;25;20386;-82
2024/04/21 10:48:05;;;;;;;;;;;8.70;99.90;;;8.42;53.32;101120.97;5530719;25;20043;-84
2024/04/21 10:50:37;;;;;;;;;;;8.60;99.90;;;8.47;55.13;101131.06;5532097;25;19972;-83
2024/04/21 10:53:04;;;;;;;;;;;8.60;99.90;;;8.57;55.10;101117.50;5531845;25;19927;-82
2024/04/21 10:55:34;;;;;;;;;;;8.70;99.90;;;8.58;53.74;101121.81;5531916;26;19939;-85
2024/04/21 10:58:00;;;;;;;;;;;8.70;99.90;;;8.59;50.71;101119.00;5531727;26;20017;-81
2024/04/21 11:00:33;;;;;;;;;;;8.80;99.90;;;8.62;52.30;101123.94;5534163;25;19935;-83
2024/04/21 11:02:59;;;;;;;;;;;8.80;99.90;;;8.60;50.57;101119.81;5533019;26;19943;-83
2024/04/21 11:05:31;;;;;;;;;;;8.80;99.90;;;8.57;50.66;101122.81;5534048;26;19935;-83
2024/04/21 11:08:01;;;;;;;;;;;8.70;99.90;;;8.44;50.73;101116.31;5527084;26;19968;-83
2024/04/21 11:10:30;;;;;;;;;;;8.70;99.90;;;8.59;52.21;101119.00;5527983;26;19939;-82
2024/04/21 11:12:56;;;;;;;;;;;8.70;99.90;;;8.70;51.23;101123.03;5525562;26;19937;-83
2024/04/21 11:15:25;;;;;;;;;;;8.80;99.90;;;8.88;52.62;101125.31;5495397;26;19928;-83
2024/04/21 11:18:00;;;;;;;;;;;9.10;99.90;;;8.91;50.83;101114.31;5497098;26;19928;-83
2024/04/21 11:20:29;;;;;;;;;;;9.10;99.90;;;8.90;50.82;101116.16;5495476;26;19935;-83
2024/04/21 11:22:57;;;;;;;;;;;9.10;99.90;;;8.89;51.28;101121.66;5498590;26;19928;-83
2024/04/21 11:25:26;;;;;;;;;;;9.10;99.90;;;8.75;50.27;101120.66;5499842;26;19935;-83
2024/04/21 11:27:52;;;;;;;;;;;9.00;99.90;;;8.90;51.40;101112.66;5498024;26;19931;-83
2024/04/21 11:30:22;;;;;;;;;;;9.10;99.90;;;9.07;51.02;101115.94;5497883;26;19935;-83